createdAt,value
2022-10-16T00:01:12.029Z,9.95
2022-10-16T00:03:40.849Z,10.25
2022-10-16T00:06:09.036Z,11.68
2022-10-16T00:08:36.593Z,10.48
2022-10-16T00:11:14.745Z,13.75
2022-10-16T00:13:43.632Z,12.45
2022-10-16T00:16:11.736Z,12.98
2022-10-16T00:18:38.641Z,11.80
2022-10-16T00:21:07.729Z,11.10
2022-10-16T00:23:34.846Z,12.68
2022-10-16T00:26:04.077Z,12.40
2022-10-16T00:28:31.129Z,11.70
2022-10-16T00:30:58.554Z,10.77
2022-10-16T00:33:25.702Z,15.18
2022-10-16T00:35:52.575Z,11.48
2022-10-16T00:38:19.264Z,11.75
2022-10-16T00:40:45.923Z,11.15
2022-10-16T00:43:55.899Z,11.10
2022-10-16T00:46:38.281Z,11.45
2022-10-16T00:51:39.932Z,10.52
2022-10-16T00:54:12.200Z,10.20
2022-10-16T00:59:12.931Z,11.73
2022-10-16T01:01:39.463Z,10.98
2022-10-16T01:04:06.118Z,12.85
2022-10-16T01:06:44.885Z,10.73
2022-10-16T01:09:37.090Z,11.02
2022-10-16T01:12:47.071Z,9.98
2022-10-16T01:15:43.746Z,9.10
2022-10-16T01:18:13.257Z,9.55
2022-10-16T01:20:49.151Z,9.20
2022-10-16T01:23:31.164Z,10.15
2022-10-16T01:26:25.362Z,9.00
2022-10-16T01:28:55.049Z,10.32
2022-10-16T01:31:27.036Z,10.55
2022-10-16T01:34:18.327Z,10.38
2022-10-16T01:36:55.605Z,9.50
2022-10-16T01:39:29.727Z,10.27
2022-10-16T01:42:04.722Z,10.57
2022-10-16T01:44:35.372Z,11.05
2022-10-16T01:47:02.428Z,9.77
2022-10-16T01:49:33.471Z,11.43
2022-10-16T01:52:03.381Z,13.23
2022-10-16T01:54:33.814Z,10.93
2022-10-16T01:57:00.993Z,9.63
2022-10-16T01:59:32.528Z,10.13
2022-10-16T02:02:09.320Z,9.70
2022-10-16T02:04:44.832Z,10.05
2022-10-16T02:07:12.238Z,11.45
2022-10-16T02:09:40.182Z,12.02
2022-10-16T02:12:17.377Z,11.63
2022-10-16T02:14:44.256Z,11.05
2022-10-16T02:17:16.650Z,10.35
2022-10-16T02:19:44.893Z,10.60
2022-10-16T02:22:19.226Z,10.35
2022-10-16T02:25:02.568Z,11.13
2022-10-16T02:27:58.750Z,10.70
2022-10-16T02:30:42.107Z,14.18
2022-10-16T02:33:12.338Z,12.05
2022-10-16T02:35:39.533Z,11.27
2022-10-16T02:38:07.706Z,13.23
2022-10-16T02:40:35.000Z,11.75
2022-10-16T02:43:04.138Z,12.57
2022-10-16T02:45:31.102Z,11.70
2022-10-16T02:47:57.732Z,11.35
2022-10-16T02:50:26.077Z,12.82
2022-10-16T02:52:53.149Z,13.70
2022-10-16T02:55:20.268Z,10.85
2022-10-16T02:57:47.175Z,10.68
2022-10-16T03:00:16.432Z,10.38
2022-10-16T03:02:43.730Z,11.18
2022-10-16T03:05:11.727Z,12.52
2022-10-16T03:07:39.596Z,12.95
2022-10-16T03:10:06.974Z,11.85
2022-10-16T03:12:33.815Z,11.63
2022-10-16T03:15:00.591Z,12.18
2022-10-16T03:17:27.379Z,12.07
2022-10-16T03:19:54.407Z,13.18
2022-10-16T03:22:21.093Z,12.15
2022-10-16T03:24:47.678Z,12.95
2022-10-16T03:27:14.719Z,11.32
2022-10-16T03:29:41.386Z,12.93
2022-10-16T03:32:08.067Z,13.43
2022-10-16T03:34:34.783Z,13.25
2022-10-16T03:37:01.412Z,12.75
2022-10-16T03:39:28.378Z,13.98
2022-10-16T03:41:55.080Z,13.95
2022-10-16T03:44:21.953Z,13.00
2022-10-16T03:46:48.772Z,13.15
2022-10-16T03:49:15.563Z,12.90
2022-10-16T03:51:42.505Z,11.48
2022-10-16T03:54:09.205Z,12.15
2022-10-16T03:56:36.195Z,12.48
2022-10-16T03:59:02.916Z,11.13
2022-10-16T04:01:29.708Z,12.27
2022-10-16T04:03:56.560Z,11.93
2022-10-16T04:06:23.284Z,10.77
2022-10-16T04:08:50.576Z,12.10
2022-10-16T04:11:17.387Z,11.30
2022-10-16T04:13:44.867Z,11.68
2022-10-16T04:16:11.462Z,12.30
2022-10-16T04:18:38.445Z,13.55
2022-10-16T04:21:08.204Z,12.57
2022-10-16T04:23:34.918Z,12.40
2022-10-16T04:26:01.620Z,12.45
2022-10-16T04:28:29.002Z,13.18
2022-10-16T04:30:56.125Z,14.13
2022-10-16T04:33:23.030Z,13.95
2022-10-16T04:35:49.805Z,14.02
2022-10-16T04:38:16.657Z,13.60
2022-10-16T04:40:43.774Z,14.35
2022-10-16T04:43:11.607Z,13.85
2022-10-16T04:45:38.448Z,14.25
2022-10-16T04:48:05.211Z,12.15
2022-10-16T04:50:31.763Z,12.00
2022-10-16T04:52:58.341Z,12.65
2022-10-16T04:55:25.001Z,12.55
2022-10-16T04:57:51.588Z,13.23
2022-10-16T05:00:18.426Z,14.95
2022-10-16T05:02:45.109Z,14.07
2022-10-16T05:05:12.304Z,12.43
2022-10-16T05:07:38.950Z,12.20
2022-10-16T05:10:06.133Z,11.27
2022-10-16T05:12:33.041Z,9.55
2022-10-16T05:14:59.870Z,11.32
2022-10-16T05:17:27.955Z,9.05
2022-10-16T05:19:55.146Z,8.10
2022-10-16T05:22:22.077Z,6.32
2022-10-16T05:24:48.822Z,8.35
2022-10-16T05:27:20.009Z,7.00
2022-10-16T05:29:48.095Z,7.05
2022-10-16T05:32:19.270Z,6.95
2022-10-16T05:34:46.413Z,6.88
2022-10-16T05:37:13.551Z,7.93
2022-10-16T05:39:40.721Z,6.30
2022-10-16T05:42:07.685Z,5.95
2022-10-16T05:47:01.277Z,6.07
2022-10-16T05:49:27.963Z,6.80
2022-10-16T05:51:54.794Z,7.05
2022-10-16T05:54:21.487Z,6.80
2022-10-16T05:56:48.204Z,7.30
2022-10-16T05:59:15.248Z,6.45
2022-10-16T06:01:42.328Z,7.22
2022-10-16T06:04:12.752Z,5.70
2022-10-16T06:06:39.492Z,5.90
2022-10-16T06:09:06.392Z,7.82
2022-10-16T06:11:34.066Z,6.45
2022-10-16T06:14:07.672Z,6.10
2022-10-16T06:16:39.122Z,6.43
2022-10-16T06:19:09.582Z,6.10
2022-10-16T06:21:36.295Z,6.68
2022-10-16T06:24:03.326Z,6.47
2022-10-16T06:26:31.765Z,7.97
2022-10-16T06:29:00.582Z,9.07
2022-10-16T06:31:30.217Z,8.38
2022-10-16T06:33:57.286Z,10.52
2022-10-16T06:36:24.837Z,10.95
2022-10-16T06:38:51.491Z,10.57
2022-10-16T06:41:20.503Z,7.80
2022-10-16T06:43:48.934Z,7.13
2022-10-16T06:46:18.952Z,7.75
2022-10-16T06:48:45.718Z,7.20
2022-10-16T06:51:18.369Z,9.18
2022-10-16T06:54:02.261Z,6.88
2022-10-16T06:56:33.480Z,10.43
2022-10-16T06:59:01.084Z,8.23
2022-10-16T07:01:29.129Z,6.50
2022-10-16T07:03:55.818Z,9.18
2022-10-16T07:06:26.631Z,6.95
2022-10-16T07:08:53.924Z,7.63
2022-10-16T07:11:23.007Z,6.70
2022-10-16T07:13:54.655Z,7.72
2022-10-16T07:16:26.535Z,8.48
2022-10-16T07:18:59.271Z,7.40
2022-10-16T07:21:30.054Z,6.80
2022-10-16T07:24:02.332Z,7.13
2022-10-16T07:26:31.328Z,7.05
2022-10-16T07:28:58.533Z,7.70
2022-10-16T07:31:26.178Z,7.38
2022-10-16T07:33:53.065Z,7.18
2022-10-16T07:36:22.400Z,7.43
2022-10-16T07:38:51.069Z,7.28
2022-10-16T07:41:20.999Z,7.93
2022-10-16T07:43:49.656Z,7.97
2022-10-16T07:46:17.519Z,7.43
2022-10-16T07:48:47.305Z,10.25
2022-10-16T07:51:16.243Z,7.38
2022-10-16T07:53:43.071Z,6.63
2022-10-16T07:56:10.517Z,6.82
2022-10-16T07:58:40.521Z,7.20
2022-10-16T08:01:09.667Z,6.47
2022-10-16T08:03:37.206Z,6.97
2022-10-16T08:06:05.225Z,8.30
2022-10-16T08:08:32.067Z,12.88
2022-10-16T08:10:59.060Z,8.30
2022-10-16T08:13:25.914Z,7.78
2022-10-16T08:15:52.506Z,7.68
2022-10-16T08:18:19.328Z,7.57
2022-10-16T08:20:46.062Z,7.20
2022-10-16T08:23:14.465Z,6.88
2022-10-16T08:25:42.285Z,8.13
2022-10-16T08:28:11.941Z,6.35
2022-10-16T08:30:39.394Z,7.25
2022-10-16T08:33:07.844Z,6.45
2022-10-16T08:35:34.725Z,6.90
2022-10-16T08:38:04.363Z,6.88
2022-10-16T08:40:33.873Z,6.18
2022-10-16T08:43:24.651Z,4.60
2022-10-16T08:46:08.562Z,5.38
2022-10-16T08:48:44.201Z,5.00
2022-10-16T08:51:16.382Z,4.90
2022-10-16T08:56:24.744Z,4.25
2022-10-16T08:58:55.303Z,4.30
2022-10-16T09:01:40.299Z,4.72
2022-10-16T09:04:34.555Z,3.95
2022-10-16T09:07:30.420Z,3.25
2022-10-16T09:10:06.099Z,3.30
2022-10-16T09:12:44.701Z,3.60
2022-10-16T09:15:42.338Z,2.58
2022-10-16T09:18:32.725Z,4.15
2022-10-16T09:21:13.264Z,3.05
2022-10-16T09:23:40.121Z,3.38
2022-10-16T09:26:12.457Z,3.50
2022-10-16T09:28:39.355Z,3.10
2022-10-16T09:31:06.213Z,3.72
2022-10-16T09:33:39.112Z,3.70
2022-10-16T09:36:07.688Z,3.40
2022-10-16T09:38:37.057Z,2.90
2022-10-16T09:41:23.437Z,3.85
2022-10-16T09:43:57.947Z,5.80
2022-10-16T09:46:33.072Z,3.13
2022-10-16T09:49:02.111Z,2.90
2022-10-16T09:51:33.252Z,2.95
2022-10-16T09:54:21.468Z,3.00
2022-10-16T09:56:55.427Z,2.90
2022-10-16T09:59:27.717Z,2.35
2022-10-16T10:01:56.272Z,2.80
2022-10-16T10:04:29.503Z,2.80
2022-10-16T10:06:57.977Z,2.70
2022-10-16T10:09:30.646Z,3.42
2022-10-16T10:11:59.162Z,6.15
2022-10-16T10:14:34.576Z,3.85
2022-10-16T10:17:07.206Z,2.42
2022-10-16T10:19:40.839Z,4.05
2022-10-16T10:22:22.752Z,3.08
2022-10-16T10:24:58.701Z,3.10
2022-10-16T10:27:42.673Z,3.05
2022-10-16T10:30:51.223Z,3.20
2022-10-16T10:33:36.472Z,2.83
2022-10-16T10:36:26.991Z,9.70
2022-10-16T10:39:03.956Z,3.53
2022-10-16T10:41:31.705Z,3.00
2022-10-16T10:44:13.175Z,2.92
2022-10-16T10:46:53.442Z,2.85
2022-10-16T10:49:21.231Z,2.63
2022-10-16T10:52:03.979Z,2.88
2022-10-16T10:54:47.988Z,2.42
2022-10-16T10:57:43.476Z,3.45
2022-10-16T11:00:19.279Z,3.30
2022-10-16T11:02:56.881Z,4.43
2022-10-16T11:05:29.430Z,3.63
2022-10-16T11:08:01.491Z,2.75
2022-10-16T11:13:34.222Z,2.60
2022-10-16T11:16:09.405Z,2.70
2022-10-16T11:18:47.644Z,2.63
2022-10-16T11:21:17.812Z,8.57
2022-10-16T11:23:55.614Z,2.97
2022-10-16T11:26:29.337Z,2.97
2022-10-16T11:28:59.473Z,2.38
2022-10-16T11:31:31.227Z,2.28
2022-10-16T11:34:17.180Z,3.08
2022-10-16T11:37:06.803Z,2.75
2022-10-16T11:39:34.230Z,2.30
2022-10-16T11:42:04.603Z,2.28
2022-10-16T11:44:40.202Z,3.03
2022-10-16T11:50:18.828Z,3.33
2022-10-16T11:52:57.694Z,2.70
2022-10-16T11:55:43.348Z,2.15
2022-10-16T11:58:33.400Z,2.75
2022-10-16T12:04:22.637Z,2.35
2022-10-16T12:07:19.515Z,2.30
2022-10-16T12:09:46.172Z,2.30
2022-10-16T12:12:40.694Z,3.35
2022-10-16T12:15:17.777Z,3.88
2022-10-16T12:17:49.610Z,3.30
2022-10-16T12:20:21.367Z,2.55
2022-10-16T12:23:03.552Z,2.58
2022-10-16T12:28:18.912Z,2.60
2022-10-16T12:31:06.277Z,2.65
2022-10-16T12:33:42.923Z,2.97
2022-10-16T12:36:27.725Z,2.00
2022-10-16T12:38:55.403Z,3.15
2022-10-16T12:41:41.055Z,2.15
2022-10-16T12:44:24.728Z,3.13
2022-10-16T12:46:52.044Z,3.42
2022-10-16T12:49:36.907Z,2.80
2022-10-16T12:52:04.879Z,2.15
2022-10-16T12:54:38.223Z,2.63
2022-10-16T12:57:22.689Z,1.90
2022-10-16T13:00:01.496Z,2.55
2022-10-16T13:02:52.780Z,2.15
2022-10-16T13:05:38.128Z,2.10
2022-10-16T13:08:22.496Z,1.60
2022-10-16T13:11:10.145Z,1.50
2022-10-16T13:13:42.771Z,2.20
2022-10-16T13:16:19.602Z,2.22
2022-10-16T13:19:03.892Z,1.48
2022-10-16T13:22:13.572Z,1.38
2022-10-16T13:24:50.657Z,1.50
2022-10-16T13:27:23.270Z,1.45
2022-10-16T13:30:09.264Z,2.10
2022-10-16T13:32:36.608Z,1.52
2022-10-16T13:35:05.089Z,1.23
2022-10-16T13:37:31.908Z,1.60
2022-10-16T13:40:31.461Z,1.67
2022-10-16T13:43:01.853Z,1.63
2022-10-16T13:45:28.594Z,1.90
2022-10-16T13:48:05.980Z,1.60
2022-10-16T13:50:32.859Z,1.85
2022-10-16T13:53:14.382Z,1.48
2022-10-16T13:55:41.334Z,1.30
2022-10-16T13:58:16.885Z,2.10
2022-10-16T14:00:59.516Z,1.90
2022-10-16T14:03:28.284Z,2.25
2022-10-16T14:05:57.839Z,1.45
2022-10-16T14:08:26.976Z,1.85
2022-10-16T14:10:59.815Z,1.60
2022-10-16T14:13:29.391Z,1.35
2022-10-16T14:15:58.216Z,2.55
2022-10-16T14:18:30.789Z,1.50
2022-10-16T14:21:15.727Z,1.95
2022-10-16T14:23:43.813Z,2.05
2022-10-16T14:26:10.341Z,2.08
2022-10-16T14:28:38.786Z,1.70
2022-10-16T14:31:30.980Z,1.90
2022-10-16T14:33:57.687Z,1.77
2022-10-16T14:36:26.491Z,2.13
2022-10-16T14:39:04.039Z,2.22
2022-10-16T14:41:33.402Z,1.65
2022-10-16T14:44:12.703Z,2.15
2022-10-16T14:46:43.442Z,1.98
2022-10-16T14:49:10.172Z,1.75
2022-10-16T14:51:38.382Z,1.58
2022-10-16T14:54:05.520Z,1.58
2022-10-16T14:56:43.618Z,2.03
2022-10-16T14:59:18.924Z,1.95
2022-10-16T15:01:48.384Z,2.50
2022-10-16T15:04:18.137Z,1.98
2022-10-16T15:06:45.983Z,2.05
2022-10-16T15:09:12.791Z,2.42
2022-10-16T15:11:40.116Z,1.73
2022-10-16T15:14:07.148Z,1.60
2022-10-16T15:16:34.079Z,2.40
2022-10-16T15:19:00.835Z,2.00
2022-10-16T15:21:33.266Z,1.80
2022-10-16T15:24:01.373Z,2.10
2022-10-16T15:26:30.950Z,2.10
2022-10-16T15:28:58.348Z,1.92
2022-10-16T15:31:26.556Z,2.10
2022-10-16T15:33:59.024Z,2.20
2022-10-16T15:36:28.055Z,2.20
2022-10-16T15:38:54.779Z,2.00
2022-10-16T15:41:22.580Z,1.75
2022-10-16T15:43:53.941Z,1.70
2022-10-16T15:46:22.982Z,2.15
2022-10-16T15:48:51.360Z,2.60
2022-10-16T15:51:19.848Z,2.40
2022-10-16T15:53:47.603Z,2.05
2022-10-16T15:56:15.283Z,2.10
2022-10-16T15:58:42.394Z,2.42
2022-10-16T16:01:10.969Z,2.60
2022-10-16T16:03:41.154Z,2.13
2022-10-16T16:06:11.198Z,2.15
2022-10-16T16:08:38.791Z,2.25
2022-10-16T16:11:11.466Z,2.53
2022-10-16T16:13:39.413Z,6.10
2022-10-16T16:16:08.898Z,2.47
2022-10-16T16:18:35.582Z,2.17
2022-10-16T16:21:02.379Z,2.80
2022-10-16T16:23:29.269Z,3.88
2022-10-16T16:26:15.850Z,2.60
2022-10-16T16:28:44.389Z,2.45
2022-10-16T16:31:11.369Z,2.65
2022-10-16T16:33:38.312Z,3.88
2022-10-16T16:36:11.621Z,2.45
2022-10-16T16:38:42.322Z,2.70
2022-10-16T16:41:29.669Z,2.95
2022-10-16T16:44:02.675Z,3.85
2022-10-16T16:46:29.374Z,4.18
2022-10-16T16:48:56.660Z,5.00
2022-10-16T16:51:23.358Z,5.93
2022-10-16T16:53:52.866Z,5.68
2022-10-16T16:56:21.361Z,4.28
2022-10-16T16:58:49.936Z,6.78
2022-10-16T17:01:21.318Z,9.02
2022-10-16T17:03:51.510Z,8.45
2022-10-16T17:06:20.981Z,8.40
2022-10-16T17:08:50.336Z,9.93
2022-10-16T17:11:21.509Z,6.25
2022-10-16T17:13:52.628Z,9.07
2022-10-16T17:16:36.221Z,5.78
2022-10-16T17:19:06.641Z,6.65
2022-10-16T17:21:34.215Z,6.20
2022-10-16T17:24:01.790Z,7.88
2022-10-16T17:26:32.235Z,14.85
2022-10-16T17:29:01.979Z,7.40
2022-10-16T17:31:35.507Z,6.72
2022-10-16T17:34:04.673Z,7.75
2022-10-16T17:36:34.332Z,7.40
2022-10-16T17:39:06.679Z,8.23
2022-10-16T17:41:34.909Z,6.13
2022-10-16T17:44:02.442Z,5.72
2022-10-16T17:46:29.707Z,5.28
2022-10-16T17:48:56.530Z,5.43
2022-10-16T17:51:26.264Z,5.22
2022-10-16T17:53:55.851Z,4.95
2022-10-16T17:56:23.890Z,4.38
2022-10-16T17:58:52.455Z,6.75
2022-10-16T18:01:30.661Z,5.43
2022-10-16T18:04:05.129Z,8.90
2022-10-16T18:06:32.479Z,4.85
2022-10-16T18:09:00.321Z,3.83
2022-10-16T18:11:28.319Z,9.65
2022-10-16T18:13:56.702Z,13.93
2022-10-16T18:16:26.840Z,5.95
2022-10-16T18:18:55.174Z,5.25
2022-10-16T18:21:21.906Z,3.83
2022-10-16T18:23:51.840Z,4.03
2022-10-16T18:26:19.496Z,5.47
2022-10-16T18:28:46.643Z,4.85
2022-10-16T18:31:16.244Z,4.93
2022-10-16T18:33:56.211Z,4.75
2022-10-16T18:36:26.863Z,11.20
2022-10-16T18:38:54.484Z,7.25
2022-10-16T18:41:21.993Z,6.00
2022-10-16T18:43:48.955Z,6.28
2022-10-16T18:46:18.994Z,9.27
2022-10-16T18:48:47.073Z,10.77
2022-10-16T18:51:18.050Z,14.95
2022-10-16T18:53:46.800Z,13.43
2022-10-16T18:56:15.309Z,11.50
2022-10-16T18:58:43.841Z,7.90
2022-10-16T19:01:16.586Z,8.40
2022-10-16T19:03:43.662Z,9.35
2022-10-16T19:06:12.590Z,9.23
2022-10-16T19:08:39.594Z,15.35
2022-10-16T19:11:20.814Z,10.95
2022-10-16T19:13:48.142Z,11.80
2022-10-16T19:16:21.198Z,9.63
2022-10-16T19:18:49.861Z,8.80
2022-10-16T19:21:17.225Z,10.93
2022-10-16T19:23:44.699Z,8.80
2022-10-16T19:26:14.944Z,11.57
2022-10-16T19:28:44.196Z,9.50
2022-10-16T19:31:14.294Z,8.80
2022-10-16T19:33:41.472Z,11.00
2022-10-16T19:36:15.765Z,12.88
2022-10-16T19:38:42.502Z,9.85
2022-10-16T19:41:19.207Z,11.65
2022-10-16T19:43:46.846Z,10.90
2022-10-16T19:46:17.424Z,10.43
2022-10-16T19:48:45.096Z,10.98
2022-10-16T19:51:15.130Z,10.80
2022-10-16T19:53:42.040Z,10.45
2022-10-16T19:56:15.345Z,11.10
2022-10-16T19:58:42.969Z,10.65
2022-10-16T20:01:10.395Z,10.70
2022-10-16T20:03:39.375Z,10.55
2022-10-16T20:06:07.446Z,10.07
2022-10-16T20:08:35.871Z,10.70
2022-10-16T20:11:03.966Z,11.57
2022-10-16T20:13:31.658Z,10.55
2022-10-16T20:15:58.961Z,11.77
2022-10-16T20:18:26.064Z,11.52
2022-10-16T20:20:52.742Z,11.48
2022-10-16T20:23:20.000Z,13.52
2022-10-16T20:25:47.025Z,17.50
2022-10-16T20:28:16.764Z,12.85
2022-10-16T20:30:45.467Z,13.80
2022-10-16T20:33:12.819Z,13.23
2022-10-16T20:35:42.909Z,14.82
2022-10-16T20:38:10.685Z,14.68
2022-10-16T20:40:39.024Z,15.15
2022-10-16T20:43:07.108Z,15.82
2022-10-16T20:45:34.234Z,14.32
2022-10-16T20:48:00.884Z,14.15
2022-10-16T20:50:31.048Z,13.60
2022-10-16T20:52:59.256Z,14.02
2022-10-16T20:55:27.315Z,12.18
2022-10-16T20:57:54.800Z,12.80
2022-10-16T21:00:22.495Z,14.68
2022-10-16T21:02:53.263Z,13.95
2022-10-16T21:05:20.163Z,13.52
2022-10-16T21:07:46.796Z,11.40
2022-10-16T21:10:13.520Z,11.30
2022-10-16T21:12:40.191Z,12.13
2022-10-16T21:15:14.935Z,11.23
2022-10-16T21:17:42.060Z,12.23
2022-10-16T21:20:09.329Z,10.00
2022-10-16T21:22:36.578Z,9.90
2022-10-16T21:25:03.426Z,11.65
2022-10-16T21:27:30.150Z,9.88
2022-10-16T21:29:56.913Z,10.32
2022-10-16T21:32:23.795Z,11.38
2022-10-16T21:34:51.004Z,10.60
2022-10-16T21:37:17.608Z,11.40
2022-10-16T21:39:44.200Z,10.60
2022-10-16T21:42:10.772Z,10.82
2022-10-16T21:44:38.906Z,11.05
2022-10-16T21:47:05.574Z,10.88
2022-10-16T21:49:32.219Z,10.38
2022-10-16T21:51:59.232Z,10.95
2022-10-16T21:54:25.882Z,11.07
2022-10-16T21:56:53.281Z,10.05
2022-10-16T21:59:20.314Z,10.30
2022-10-16T22:01:47.446Z,11.13
2022-10-16T22:04:16.046Z,11.63
2022-10-16T22:06:42.944Z,11.15
2022-10-16T22:09:14.125Z,10.48
2022-10-16T22:11:43.065Z,10.43
2022-10-16T22:14:15.063Z,9.80
2022-10-16T22:16:42.276Z,9.80
2022-10-16T22:19:09.623Z,9.70
2022-10-16T22:21:38.616Z,8.63
2022-10-16T22:24:06.523Z,9.95
2022-10-16T22:26:33.619Z,8.98
2022-10-16T22:29:00.442Z,9.90
2022-10-16T22:31:27.372Z,9.07
2022-10-16T22:33:55.717Z,10.27
2022-10-16T22:36:22.842Z,10.15
2022-10-16T22:38:49.530Z,9.77
2022-10-16T22:41:16.390Z,10.15
2022-10-16T22:43:48.233Z,10.63
2022-10-16T22:46:18.534Z,9.15
2022-10-16T22:48:45.459Z,9.98
2022-10-16T22:51:17.273Z,9.73
2022-10-16T22:53:45.419Z,9.55
2022-10-16T22:56:13.004Z,10.05
2022-10-16T22:58:40.189Z,9.85
2022-10-16T23:01:11.621Z,10.88
2022-10-16T23:03:38.303Z,12.60
2022-10-16T23:06:05.719Z,10.30
2022-10-16T23:08:32.486Z,9.77
2022-10-16T23:11:02.331Z,10.35
2022-10-16T23:13:29.306Z,9.95
2022-10-16T23:15:55.976Z,12.85
2022-10-16T23:18:22.690Z,10.80
2022-10-16T23:20:49.410Z,10.43
2022-10-16T23:23:16.056Z,17.05
2022-10-16T23:25:49.402Z,10.50
2022-10-16T23:30:43.206Z,11.43
2022-10-16T23:33:10.001Z,9.10
2022-10-16T23:35:39.987Z,10.55
2022-10-16T23:38:07.051Z,9.48
2022-10-16T23:40:33.750Z,9.13
2022-10-16T23:43:00.793Z,8.48
2022-10-16T23:45:27.526Z,7.57
2022-10-16T23:47:54.170Z,9.57
2022-10-16T23:50:20.817Z,7.57
2022-10-16T23:52:47.568Z,8.02
2022-10-16T23:55:14.224Z,7.38
2022-10-16T23:57:40.844Z,8.75
